createdAt,value
2018-04-10T00:02:19.136Z,61.46
2018-04-10T00:04:47.394Z,61.62
2018-04-10T00:07:15.643Z,62.14
2018-04-10T00:09:43.916Z,62.62
2018-04-10T00:12:12.937Z,62.83
2018-04-10T00:14:41.188Z,62.78
2018-04-10T00:17:10.216Z,63.01
2018-04-10T00:19:38.469Z,63.56
2018-04-10T00:22:06.731Z,63.92
2018-04-10T00:24:35.762Z,63.95
2018-04-10T00:27:04.014Z,64.02
2018-04-10T00:29:32.276Z,64.16
2018-04-10T00:32:00.541Z,64.20
2018-04-10T00:34:29.560Z,64.54
2018-04-10T00:36:57.806Z,64.66
2018-04-10T00:39:26.838Z,65.03
2018-04-10T00:41:55.089Z,65.27
2018-04-10T00:44:24.120Z,65.42
2018-04-10T00:46:52.372Z,65.92
2018-04-10T00:49:20.631Z,66.42
2018-04-10T00:51:49.651Z,66.83
2018-04-10T00:54:17.913Z,67.46
2018-04-10T00:56:46.164Z,67.95
2018-04-10T00:59:15.182Z,68.61
2018-04-10T01:01:43.438Z,69.13
2018-04-10T01:04:12.461Z,69.26
2018-04-10T01:06:40.717Z,69.70
2018-04-10T01:09:08.980Z,70.21
2018-04-10T01:11:38.009Z,70.62
2018-04-10T01:14:06.270Z,70.89
2018-04-10T01:16:34.525Z,71.42
2018-04-10T01:19:03.568Z,71.77
2018-04-10T01:21:31.831Z,72.09
2018-04-10T01:24:00.079Z,72.47
2018-04-10T01:26:29.113Z,72.74
2018-04-10T01:28:57.367Z,72.37
2018-04-10T01:31:25.629Z,72.71
2018-04-10T01:33:53.887Z,72.61
2018-04-10T01:36:22.921Z,72.73
2018-04-10T01:38:51.173Z,72.68
2018-04-10T01:41:19.439Z,72.84
2018-04-10T01:43:48.468Z,72.40
2018-04-10T01:46:17.308Z,72.22
2018-04-10T01:48:45.567Z,72.17
2018-04-10T01:51:13.835Z,72.18
2018-04-10T01:53:42.086Z,72.35
2018-04-10T01:56:10.342Z,72.90
2018-04-10T01:58:38.604Z,73.82
2018-04-10T02:01:07.625Z,75.10
2018-04-10T02:03:35.889Z,74.45
2018-04-10T02:06:04.145Z,74.56
2018-04-10T02:08:33.172Z,75.26
2018-04-10T02:11:01.420Z,75.55
2018-04-10T02:13:29.687Z,75.73
2018-04-10T02:15:58.716Z,76.34
2018-04-10T02:18:26.978Z,76.21
2018-04-10T02:20:55.230Z,76.66
2018-04-10T02:23:24.251Z,77.44
2018-04-10T02:25:52.508Z,77.18
2018-04-10T02:28:21.537Z,77.61
2018-04-10T02:30:49.801Z,77.55
2018-04-10T02:33:18.054Z,78.38
2018-04-10T02:35:47.084Z,78.10
2018-04-10T02:38:15.335Z,76.69
2018-04-10T02:40:43.592Z,75.34
2018-04-10T02:43:12.611Z,74.54
2018-04-10T02:45:40.869Z,74.79
2018-04-10T02:48:09.127Z,73.89
2018-04-10T02:50:38.263Z,73.79
2018-04-10T02:53:06.507Z,73.16
2018-04-10T02:55:35.533Z,72.42
2018-04-10T02:58:03.792Z,71.92
2018-04-10T03:00:32.084Z,72.24
2018-04-10T03:03:00.327Z,72.12
2018-04-10T03:05:29.355Z,72.45
2018-04-10T03:07:57.608Z,72.51
2018-04-10T03:10:25.875Z,74.38
2018-04-10T03:12:54.898Z,75.01
2018-04-10T03:15:23.160Z,75.15
2018-04-10T03:17:51.423Z,75.38
2018-04-10T03:20:19.684Z,74.86
2018-04-10T03:22:48.721Z,75.90
2018-04-10T03:25:16.984Z,76.28
2018-04-10T03:27:45.244Z,76.58
2018-04-10T03:30:14.266Z,77.35
2018-04-10T03:32:42.522Z,76.83
2018-04-10T03:35:10.779Z,77.65
2018-04-10T03:37:39.804Z,76.86
2018-04-10T03:40:08.057Z,77.71
2018-04-10T03:42:37.084Z,77.92
2018-04-10T03:45:05.339Z,78.12
2018-04-10T03:47:33.599Z,77.13
2018-04-10T03:50:01.862Z,77.88
2018-04-10T03:52:30.891Z,78.11
2018-04-10T03:54:59.141Z,78.36
2018-04-10T03:57:28.166Z,78.68
2018-04-10T03:59:56.414Z,78.90
2018-04-10T04:02:24.675Z,79.11
2018-04-10T04:04:53.704Z,78.93
2018-04-10T04:07:21.959Z,79.22
2018-04-10T04:09:50.226Z,79.21
2018-04-10T04:12:19.238Z,80.35
2018-04-10T04:14:47.500Z,80.86
2018-04-10T04:17:33.417Z,81.21
2018-04-10T04:20:19.481Z,81.88
2018-04-10T04:22:48.495Z,82.42
2018-04-10T04:25:16.749Z,82.19
2018-04-10T04:27:45.759Z,81.51
2018-04-10T04:30:14.015Z,81.79
2018-04-10T04:32:43.036Z,81.98
2018-04-10T04:35:11.278Z,82.40
2018-04-10T04:37:40.300Z,82.97
2018-04-10T04:40:08.557Z,82.04
2018-04-10T04:42:37.572Z,81.83
2018-04-10T04:45:05.845Z,80.58
2018-04-10T04:47:34.088Z,80.34
2018-04-10T04:50:03.123Z,80.31
2018-04-10T04:52:31.375Z,79.13
2018-04-10T04:54:59.622Z,79.29
2018-04-10T04:57:27.884Z,81.13
2018-04-10T04:59:56.132Z,80.38
2018-04-10T05:02:24.392Z,82.45
2018-04-10T05:04:52.635Z,81.41
2018-04-10T05:07:21.660Z,81.35
2018-04-10T05:09:49.910Z,81.82
2018-04-10T05:12:18.927Z,81.40
2018-04-10T05:14:47.184Z,81.92
2018-04-10T05:17:16.208Z,82.03
2018-04-10T05:19:44.456Z,81.83
2018-04-10T05:22:13.472Z,82.31
2018-04-10T05:24:41.724Z,82.32
2018-04-10T05:27:10.748Z,82.07
2018-04-10T05:29:39.005Z,82.54
2018-04-10T05:32:07.274Z,80.99
2018-04-10T05:34:35.536Z,81.30
2018-04-10T05:37:04.583Z,79.51
2018-04-10T05:39:32.841Z,76.64
2018-04-10T05:42:01.093Z,75.89
2018-04-10T05:44:29.355Z,75.15
2018-04-10T05:46:58.384Z,74.43
2018-04-10T05:49:26.751Z,73.94
2018-04-10T05:51:55.012Z,74.36
2018-04-10T05:54:24.036Z,74.14
2018-04-10T05:56:52.288Z,74.44
2018-04-10T05:59:20.551Z,74.66
2018-04-10T06:01:49.574Z,74.17
2018-04-10T06:04:17.836Z,74.38
2018-04-10T06:06:46.092Z,73.55
2018-04-10T06:09:15.126Z,73.22
2018-04-10T06:11:43.377Z,72.52
2018-04-10T06:14:11.640Z,72.81
2018-04-10T06:16:40.671Z,72.59
2018-04-10T06:19:08.923Z,71.99
2018-04-10T06:21:37.186Z,73.18
2018-04-10T06:24:06.204Z,72.44
2018-04-10T06:26:34.472Z,71.74
2018-04-10T06:29:02.730Z,71.00
2018-04-10T06:31:31.753Z,70.08
2018-04-10T06:34:00.012Z,70.32
2018-04-10T06:36:28.265Z,70.56
2018-04-10T06:38:56.514Z,70.41
2018-04-10T06:41:24.780Z,71.71
2018-04-10T06:43:53.047Z,71.55
2018-04-10T06:46:21.316Z,70.48
2018-04-10T06:48:49.567Z,70.25
2018-04-10T06:51:17.824Z,69.46
2018-04-10T06:53:46.848Z,69.62
2018-04-10T06:56:15.125Z,68.73
2018-04-10T06:58:43.386Z,68.83
2018-04-10T07:01:11.637Z,68.54
2018-04-10T07:03:39.894Z,68.36
2018-04-10T07:06:08.140Z,69.25
2018-04-10T07:08:36.396Z,68.78
2018-04-10T07:11:04.642Z,68.03
2018-04-10T07:13:33.663Z,67.52
2018-04-10T07:16:01.913Z,67.02
2018-04-10T07:18:30.947Z,67.52
2018-04-10T07:20:59.230Z,67.28
2018-04-10T07:23:27.468Z,67.05
2018-04-10T07:25:56.496Z,66.87
2018-04-10T07:28:24.750Z,66.38
2018-04-10T07:30:53.015Z,66.07
2018-04-10T07:33:22.028Z,66.38
2018-04-10T07:35:50.377Z,65.90
2018-04-10T07:38:19.395Z,64.95
2018-04-10T07:40:47.659Z,64.49
2018-04-10T07:43:15.916Z,64.77
2018-04-10T07:45:44.945Z,65.02
2018-04-10T07:48:13.197Z,64.14
2018-04-10T07:50:42.218Z,64.34
2018-04-10T07:53:10.459Z,64.68
2018-04-10T07:55:39.483Z,64.95
2018-04-10T07:58:07.731Z,64.13
2018-04-10T08:00:36.762Z,64.62
2018-04-10T08:03:04.999Z,64.32
2018-04-10T08:05:34.032Z,64.79
2018-04-10T08:08:02.284Z,64.15
2018-04-10T08:10:30.560Z,63.56
2018-04-10T08:12:58.807Z,63.27
2018-04-10T08:15:27.831Z,62.85
2018-04-10T08:17:56.083Z,62.73
2018-04-10T08:20:25.111Z,62.01
2018-04-10T08:22:53.375Z,62.04
2018-04-10T08:25:21.621Z,61.35
2018-04-10T08:27:49.883Z,60.84
2018-04-10T08:30:18.132Z,60.40
2018-04-10T08:32:46.391Z,60.40
2018-04-10T08:35:14.645Z,60.45
2018-04-10T08:37:42.900Z,59.98
2018-04-10T08:40:11.912Z,59.11
2018-04-10T08:42:40.175Z,58.35
2018-04-10T08:45:09.194Z,58.81
2018-04-10T08:47:37.449Z,58.56
2018-04-10T08:50:06.464Z,58.05
2018-04-10T08:52:34.721Z,57.30
2018-04-10T08:55:02.970Z,57.16
2018-04-10T08:57:31.224Z,56.92
2018-04-10T08:59:59.476Z,56.39
2018-04-10T09:02:27.743Z,54.95
2018-04-10T09:04:55.988Z,54.58
2018-04-10T09:07:25.012Z,55.75
2018-04-10T09:09:53.255Z,54.57
2018-04-10T09:12:22.277Z,55.65
2018-04-10T09:14:50.536Z,55.44
2018-04-10T09:17:19.564Z,54.85
2018-04-10T09:19:47.807Z,54.65
2018-04-10T09:22:16.061Z,53.99
2018-04-10T09:24:45.114Z,54.09
2018-04-10T09:27:13.392Z,53.66
2018-04-10T09:29:41.644Z,53.42
2018-04-10T09:32:09.892Z,52.42
2018-04-10T09:34:38.916Z,52.72
2018-04-10T09:37:07.160Z,52.47
2018-04-10T09:39:36.181Z,51.83
2018-04-10T09:42:04.478Z,51.68
2018-04-10T09:44:32.695Z,52.52
2018-04-10T09:47:01.716Z,51.73
2018-04-10T09:49:29.968Z,52.23
2018-04-10T09:51:58.985Z,51.67
2018-04-10T09:54:27.239Z,51.45
2018-04-10T09:56:56.268Z,51.07
2018-04-10T09:59:24.531Z,49.32
2018-04-10T10:01:52.780Z,48.19
2018-04-10T10:04:21.821Z,48.19
2018-04-10T10:06:50.069Z,47.41
2018-04-10T10:09:18.323Z,47.49
2018-04-10T10:11:46.576Z,46.96
2018-04-10T10:14:14.823Z,45.66
2018-04-10T10:16:43.088Z,45.02
2018-04-10T10:19:11.340Z,45.67
2018-04-10T10:21:40.359Z,46.35
2018-04-10T10:24:08.604Z,47.38
2018-04-10T10:26:37.630Z,44.10
2018-04-10T10:29:05.876Z,43.22
2018-04-10T10:31:34.904Z,43.98
2018-04-10T10:34:03.157Z,42.87
2018-04-10T10:36:31.421Z,42.55
2018-04-10T10:39:00.450Z,42.35
2018-04-10T10:41:28.704Z,41.18
2018-04-10T10:43:56.953Z,41.50
2018-04-10T10:46:25.987Z,41.98
2018-04-10T10:48:54.235Z,41.04
2018-04-10T10:51:22.495Z,40.07
2018-04-10T10:53:51.514Z,41.87
2018-04-10T10:56:19.773Z,42.24
2018-04-10T10:58:48.783Z,42.52
2018-04-10T11:01:17.045Z,42.78
2018-04-10T11:03:46.061Z,42.72
2018-04-10T11:06:14.322Z,41.15
2018-04-10T11:08:42.575Z,41.22
2018-04-10T11:11:11.612Z,41.07
2018-04-10T11:13:39.848Z,43.04
2018-04-10T11:16:08.861Z,44.35
2018-04-10T11:18:37.125Z,45.69
2018-04-10T11:21:06.155Z,44.06
2018-04-10T11:23:34.420Z,43.90
2018-04-10T11:26:02.667Z,43.67
2018-04-10T11:28:31.691Z,44.77
2018-04-10T11:30:59.950Z,44.69
2018-04-10T11:33:28.200Z,44.36
2018-04-10T11:35:57.222Z,44.38
2018-04-10T11:38:25.487Z,44.54
2018-04-10T11:40:54.500Z,43.35
2018-04-10T11:43:22.764Z,43.21
2018-04-10T11:45:51.012Z,43.91
2018-04-10T11:48:19.274Z,44.32
2018-04-10T11:50:47.519Z,43.60
2018-04-10T11:53:15.775Z,44.79
2018-04-10T11:55:44.028Z,40.60
2018-04-10T11:58:13.044Z,42.13
2018-04-10T12:00:41.289Z,43.82
2018-04-10T12:03:10.312Z,43.07
2018-04-10T12:05:38.569Z,42.82
2018-04-10T12:08:07.616Z,43.67
2018-04-10T12:10:35.844Z,44.24
2018-04-10T12:13:04.100Z,43.74
2018-04-10T12:15:33.115Z,43.55
2018-04-10T12:18:01.377Z,42.04
2018-04-10T12:20:30.392Z,41.97
2018-04-10T12:22:58.640Z,41.62
2018-04-10T12:25:27.659Z,42.34
2018-04-10T12:27:55.912Z,42.04
2018-04-10T12:30:24.933Z,42.51
2018-04-10T12:32:53.179Z,43.20
2018-04-10T12:35:22.207Z,43.85
2018-04-10T12:37:50.460Z,41.85
2018-04-10T12:40:18.711Z,43.02
2018-04-10T12:42:46.968Z,43.34
2018-04-10T12:45:15.219Z,42.24
2018-04-10T12:47:43.472Z,41.23
2018-04-10T12:50:11.730Z,40.51
2018-04-10T12:52:40.764Z,40.59
2018-04-10T12:55:09.000Z,41.60
2018-04-10T12:57:38.019Z,42.18
2018-04-10T13:00:06.283Z,42.51
2018-04-10T13:02:34.528Z,43.60
2018-04-10T13:05:03.553Z,42.84
2018-04-10T13:07:31.843Z,42.81
2018-04-10T13:10:00.823Z,42.67
2018-04-10T13:12:29.073Z,43.57
2018-04-10T13:14:58.097Z,43.35
2018-04-10T13:17:26.352Z,43.06
2018-04-10T13:19:55.391Z,43.44
2018-04-10T13:22:23.634Z,43.99
2018-04-10T13:24:51.884Z,43.82
2018-04-10T13:27:20.910Z,44.41
2018-04-10T13:29:49.155Z,44.00
2018-04-10T13:32:18.179Z,44.00
2018-04-10T13:34:46.435Z,45.11
2018-04-10T13:37:14.691Z,44.49
2018-04-10T13:39:43.704Z,44.34
2018-04-10T13:42:11.963Z,44.21
2018-04-10T13:44:40.979Z,44.21
2018-04-10T13:47:09.238Z,44.73
2018-04-10T13:49:38.248Z,44.98
2018-04-10T13:52:06.514Z,45.30
2018-04-10T13:54:35.524Z,46.30
2018-04-10T13:57:03.779Z,46.56
2018-04-10T13:59:32.849Z,45.93
2018-04-10T14:02:01.069Z,45.99
2018-04-10T14:04:29.320Z,46.02
2018-04-10T14:06:58.342Z,45.58
2018-04-10T14:09:26.592Z,44.82
2018-04-10T14:11:55.604Z,43.96
2018-04-10T14:14:23.867Z,43.56
2018-04-10T14:16:52.888Z,43.46
2018-04-10T14:19:21.136Z,43.37
2018-04-10T14:21:49.412Z,43.11
2018-04-10T14:24:17.673Z,43.67
2018-04-10T14:26:46.685Z,43.79
2018-04-10T14:29:14.939Z,43.63
2018-04-10T14:31:43.963Z,43.49
2018-04-10T14:34:12.222Z,43.39
2018-04-10T14:36:41.228Z,43.88
2018-04-10T14:39:09.485Z,43.65
2018-04-10T14:41:38.500Z,43.94
2018-04-10T14:44:06.759Z,43.57
2018-04-10T14:46:35.016Z,43.24
2018-04-10T14:49:04.047Z,43.31
2018-04-10T14:51:32.299Z,42.35
2018-04-10T14:54:01.317Z,44.00
2018-04-10T14:56:29.564Z,43.19
2018-04-10T14:58:58.591Z,42.20
2018-04-10T15:01:26.841Z,42.95
2018-04-10T15:03:55.862Z,42.69
2018-04-10T15:06:24.117Z,42.69
2018-04-10T15:08:52.416Z,43.27
2018-04-10T15:11:21.390Z,43.37
2018-04-10T15:13:49.647Z,43.78
2018-04-10T15:16:18.659Z,41.97
2018-04-10T15:18:46.919Z,41.79
2018-04-10T15:21:15.171Z,41.55
2018-04-10T15:23:43.453Z,41.06
2018-04-10T15:26:11.714Z,40.25
2018-04-10T15:28:39.994Z,40.16
2018-04-10T15:31:08.235Z,40.89
2018-04-10T15:33:36.485Z,40.23
2018-04-10T15:36:04.740Z,40.42
2018-04-10T15:38:33.751Z,41.35
2018-04-10T15:41:02.018Z,41.81
2018-04-10T15:43:31.023Z,40.74
2018-04-10T15:45:59.281Z,42.12
2018-04-10T15:48:28.292Z,41.40
2018-04-10T15:50:56.542Z,41.67
2018-04-10T15:53:25.565Z,42.39
2018-04-10T15:55:53.823Z,42.19
2018-04-10T15:58:22.837Z,41.95
2018-04-10T16:00:51.108Z,41.52
2018-04-10T16:03:19.356Z,41.77
2018-04-10T16:05:47.611Z,44.52
2018-04-10T16:08:15.863Z,44.58
2018-04-10T16:10:44.126Z,45.09
2018-04-10T16:13:12.367Z,45.24
2018-04-10T16:15:40.630Z,44.43
2018-04-10T16:18:09.652Z,44.05
2018-04-10T16:20:37.899Z,44.26
2018-04-10T16:23:06.157Z,44.65
2018-04-10T16:25:34.406Z,44.76
2018-04-10T16:28:02.662Z,45.28
2018-04-10T16:30:30.914Z,46.30
2018-04-10T16:32:59.940Z,46.28
2018-04-10T16:35:28.187Z,47.23
2018-04-10T16:37:57.356Z,46.86
2018-04-10T16:40:25.603Z,47.12
2018-04-10T16:42:53.860Z,46.93
2018-04-10T16:45:22.110Z,46.53
2018-04-10T16:47:51.139Z,46.54
2018-04-10T16:50:19.388Z,45.74
2018-04-10T16:52:47.659Z,45.88
2018-04-10T16:55:15.910Z,46.03
2018-04-10T16:57:45.173Z,46.35
2018-04-10T17:00:13.512Z,46.10
2018-04-10T17:02:41.796Z,46.00
2018-04-10T17:05:10.055Z,46.89
2018-04-10T17:07:39.063Z,47.66
2018-04-10T17:10:07.319Z,47.94
2018-04-10T17:12:36.382Z,48.08
2018-04-10T17:15:04.612Z,48.66
2018-04-10T17:17:32.853Z,47.78
2018-04-10T17:20:01.875Z,48.64
2018-04-10T17:22:30.127Z,49.91
2018-04-10T17:24:59.195Z,48.92
2018-04-10T17:27:27.415Z,48.55
2018-04-10T17:29:55.684Z,49.44
2018-04-10T17:32:23.970Z,50.90
2018-04-10T17:34:52.220Z,52.37
2018-04-10T17:37:21.239Z,52.98
2018-04-10T17:39:49.492Z,53.35
2018-04-10T17:42:18.500Z,53.61
2018-04-10T17:44:46.752Z,53.94
2018-04-10T17:47:15.011Z,54.00
2018-04-10T17:49:43.267Z,53.96
2018-04-10T17:52:11.514Z,54.18
2018-04-10T17:54:39.782Z,54.71
2018-04-10T17:57:08.029Z,54.84
2018-04-10T17:59:36.276Z,54.93
2018-04-10T18:02:04.526Z,55.53
2018-04-10T18:04:32.789Z,56.17
2018-04-10T18:07:01.039Z,57.04
2018-04-10T18:09:30.049Z,56.65
2018-04-10T18:11:58.306Z,58.34
2018-04-10T18:14:27.327Z,59.56
2018-04-10T18:16:55.575Z,59.55
2018-04-10T18:19:23.816Z,60.64
2018-04-10T18:21:52.080Z,60.92
2018-04-10T18:24:20.320Z,60.37
2018-04-10T18:26:48.571Z,61.79
2018-04-10T18:29:16.817Z,61.92
2018-04-10T18:31:45.068Z,59.85
2018-04-10T18:34:13.315Z,60.58
2018-04-10T18:36:42.333Z,61.00
2018-04-10T18:39:10.576Z,64.52
2018-04-10T18:41:39.688Z,67.04
2018-04-10T18:44:07.840Z,67.64
2018-04-10T18:46:36.860Z,67.16
2018-04-10T18:49:05.104Z,67.73
2018-04-10T18:51:33.352Z,67.29
2018-04-10T18:54:01.601Z,67.36
2018-04-10T18:56:29.859Z,67.53
2018-04-10T18:58:58.096Z,67.96
2018-04-10T19:01:26.364Z,69.00
2018-04-10T19:03:54.679Z,70.15
2018-04-10T19:06:22.885Z,71.11
2018-04-10T19:08:51.137Z,71.92
2018-04-10T19:11:19.396Z,73.53
2018-04-10T19:13:48.421Z,74.02
2018-04-10T19:16:17.389Z,80.00
2018-04-10T19:18:45.653Z,84.27
2018-04-10T19:21:13.988Z,83.76
2018-04-10T19:23:42.450Z,85.13
2018-04-10T19:26:10.798Z,84.33
2018-04-10T19:28:39.404Z,87.12
2018-04-10T19:31:07.792Z,85.39
2018-04-10T19:33:36.175Z,86.33
2018-04-10T19:36:04.606Z,87.35
2018-04-10T19:38:33.065Z,87.35
2018-04-10T19:41:02.545Z,93.34
2018-04-10T19:43:30.811Z,89.50
2018-04-10T19:45:59.063Z,90.04
2018-04-10T19:48:27.349Z,89.16
2018-04-10T19:50:55.600Z,88.24
2018-04-10T19:53:24.688Z,88.15
2018-04-10T19:55:53.703Z,88.20
2018-04-10T19:58:21.972Z,87.90
2018-04-10T20:00:50.233Z,87.19
2018-04-10T20:03:19.434Z,87.31
2018-04-10T20:05:48.456Z,88.47
2018-04-10T20:08:16.712Z,87.99
2018-04-10T20:10:45.013Z,87.34
2018-04-10T20:13:13.396Z,86.94
2018-04-10T20:15:41.678Z,84.01
2018-04-10T20:18:09.888Z,84.86
2018-04-10T20:20:38.156Z,84.38
2018-04-10T20:23:06.399Z,82.68
2018-04-10T20:25:34.652Z,83.04
2018-04-10T20:28:02.901Z,84.90
2018-04-10T20:30:31.912Z,84.08
2018-04-10T20:33:00.153Z,84.74
2018-04-10T20:35:28.418Z,83.77
2018-04-10T20:37:56.668Z,81.63
2018-04-10T20:40:24.913Z,83.28
2018-04-10T20:42:53.911Z,83.08
2018-04-10T20:45:22.166Z,82.43
2018-04-10T20:47:51.182Z,83.35
2018-04-10T20:50:19.435Z,84.14
2018-04-10T20:52:48.443Z,84.77
2018-04-10T20:55:16.697Z,87.07
2018-04-10T20:57:45.712Z,84.92
2018-04-10T21:00:14.729Z,86.84
2018-04-10T21:02:42.973Z,87.10
2018-04-10T21:05:11.983Z,86.25
2018-04-10T21:07:40.310Z,86.49
2018-04-10T21:10:08.555Z,89.39
2018-04-10T21:12:36.796Z,90.57
2018-04-10T21:15:05.809Z,90.92
2018-04-10T21:17:34.048Z,90.30
2018-04-10T21:20:02.299Z,89.89
2018-04-10T21:22:30.535Z,90.26
2018-04-10T21:24:58.791Z,89.69
2018-04-10T21:27:27.797Z,89.74
2018-04-10T21:29:56.174Z,90.21
2018-04-10T21:32:25.320Z,89.91
2018-04-10T21:34:53.571Z,90.21
2018-04-10T21:37:21.815Z,89.81
2018-04-10T21:39:50.131Z,89.76
2018-04-10T21:42:18.408Z,90.68
2018-04-10T21:44:46.655Z,90.29
2018-04-10T21:47:14.895Z,89.98
2018-04-10T21:49:43.251Z,90.49
2018-04-10T21:52:11.551Z,90.73
2018-04-10T21:54:39.875Z,90.17
2018-04-10T21:57:08.167Z,90.23
2018-04-10T21:59:36.404Z,90.40
2018-04-10T22:02:04.655Z,90.21
2018-04-10T22:04:32.883Z,90.24
2018-04-10T22:07:01.132Z,90.61
2018-04-10T22:09:29.368Z,90.51
2018-04-10T22:11:57.626Z,90.41
2018-04-10T22:14:25.859Z,90.08
2018-04-10T22:16:54.118Z,89.78
2018-04-10T22:19:23.120Z,89.18
2018-04-10T22:21:51.366Z,89.09
2018-04-10T22:24:19.619Z,88.71
2018-04-10T22:26:47.865Z,89.14
2018-04-10T22:29:16.105Z,89.40
2018-04-10T22:31:45.139Z,89.91
2018-04-10T22:34:13.332Z,90.69
2018-04-10T22:36:41.573Z,91.19
2018-04-10T22:39:09.831Z,91.28
2018-04-10T22:41:38.075Z,90.73
2018-04-10T22:44:07.101Z,90.86
2018-04-10T22:46:35.341Z,91.14
2018-04-10T22:49:04.358Z,90.60
2018-04-10T22:51:32.619Z,90.84
2018-04-10T22:54:01.679Z,91.21
2018-04-10T22:56:29.932Z,90.93
2018-04-10T22:58:58.190Z,91.92
2018-04-10T23:01:26.500Z,92.35
2018-04-10T23:03:54.761Z,92.55
2018-04-10T23:06:23.032Z,92.03
2018-04-10T23:08:51.280Z,91.94
2018-04-10T23:11:20.289Z,91.54
2018-04-10T23:13:48.550Z,91.06
2018-04-10T23:16:17.575Z,91.23
2018-04-10T23:18:45.827Z,91.20
2018-04-10T23:21:14.842Z,90.96
2018-04-10T23:23:43.080Z,90.51
2018-04-10T23:26:12.106Z,90.36
2018-04-10T23:28:40.351Z,90.02
2018-04-10T23:31:08.603Z,89.66
2018-04-10T23:33:36.843Z,90.05
2018-04-10T23:36:05.087Z,89.94
2018-04-10T23:38:34.101Z,89.61
2018-04-10T23:41:02.352Z,89.90
2018-04-10T23:43:30.595Z,89.06
2018-04-10T23:45:58.835Z,89.09
2018-04-10T23:48:27.085Z,89.34
2018-04-10T23:50:56.101Z,89.48
2018-04-10T23:53:24.357Z,89.86
2018-04-10T23:55:52.603Z,90.52
2018-04-10T23:58:20.852Z,92.06
